Hlavní strana
METAR-TAF:

METAR-TAF

Letiště :

Luni

Sarzana, Itálie

zeměpisná šířka: 44-05N, zeměpisná délka: 009-59E, výška: 9 m

Aktuální stav počasí

Zpráva byla vytvořena před 1 hodinou a 21 minutami, v 08:55 UTC
Severozápadní vítr 5 kt
Teplota 8°C
Vlhkost vzduchu 93%
Tlak 1027 hPa
Viditelnost: 6000 m
Oblačno až skoro zataženo ve výšce 2500 ft

METAR: LIQW 180855Z 32005KT 6000 BKN025 08/07 Q1027 RMK BKN VIS MIN 6000 WIND THR18 31006KT WHT

Čas: 11:16 (10:16 UTC)


TAF: chybějící

Stav a předpovědi počasí z více než 4 000 letišť (zprávy METAR a TAF).

Červené a žluté tečky na mapě představují dostupné meteorologické stanice.

Když kurzor umístíte na tečku, zobrazí se název stanice.

Pak kliknutím zobrazíte stav a předpověď počasí.

Chcete-li změnit mapu, kliknutím na zelené tlačítko se znaménkem +mapu přiblížíte, kliknutím na zelené tlačítko se znaménkem – mapu oddálíte a kliknutím na zelené šipky přejdete na sousední mapy.


METAR-TAF: